createdAt,value
2023-05-16T00:02:35.328Z,101439.69
2023-05-16T00:05:22.551Z,101447.78
2023-05-16T00:08:09.457Z,101444.38
2023-05-16T00:10:56.553Z,101440.13
2023-05-16T00:13:43.494Z,101446.16
2023-05-16T00:16:30.554Z,101440.91
2023-05-16T00:19:17.722Z,101392.22
2023-05-16T00:22:04.938Z,101428.75
2023-05-16T00:24:53.344Z,101436.00
2023-05-16T00:27:40.323Z,101415.97
2023-05-16T00:30:29.873Z,101425.47
2023-05-16T00:33:17.052Z,101416.06
2023-05-16T00:36:04.122Z,101391.09
2023-05-16T00:38:51.114Z,101371.06
2023-05-16T00:41:38.286Z,101416.28
2023-05-16T00:44:25.958Z,101410.94
2023-05-16T00:47:14.387Z,101365.06
2023-05-16T00:50:01.801Z,101406.66
2023-05-16T00:52:49.336Z,101370.41
2023-05-16T00:55:36.608Z,101411.84
2023-05-16T00:58:25.592Z,101417.25
2023-05-16T01:01:13.063Z,101419.06
2023-05-16T01:04:00.328Z,101379.34
2023-05-16T01:06:47.773Z,101396.88
2023-05-16T01:09:34.996Z,101411.63
2023-05-16T01:12:49.185Z,101418.53
2023-05-16T01:15:45.603Z,101420.34
2023-05-16T01:18:32.647Z,101417.59
2023-05-16T01:21:24.138Z,101404.44
2023-05-16T01:24:43.158Z,101409.88
2023-05-16T01:27:31.774Z,101394.09
2023-05-16T01:30:18.831Z,101402.78
2023-05-16T01:33:06.136Z,101390.47
2023-05-16T01:35:56.720Z,101391.25
2023-05-16T01:38:50.968Z,101373.72
2023-05-16T01:41:56.506Z,101378.81
2023-05-16T01:44:52.775Z,101369.94
2023-05-16T01:47:43.639Z,101366.34
2023-05-16T01:50:35.178Z,101359.22
2023-05-16T01:53:34.789Z,101314.38
2023-05-16T01:56:22.756Z,101293.34
2023-05-16T01:59:12.016Z,101361.72
2023-05-16T02:01:59.120Z,101362.69
2023-05-16T02:04:46.344Z,101358.16
2023-05-16T02:07:35.899Z,101358.16
2023-05-16T02:10:23.095Z,101354.63
2023-05-16T02:13:11.076Z,101350.31
2023-05-16T02:15:58.205Z,101368.06
2023-05-16T02:18:45.174Z,101367.28
2023-05-16T02:21:32.368Z,101353.97
2023-05-16T02:24:19.365Z,101361.94
2023-05-16T02:27:06.390Z,101363.63
2023-05-16T02:29:53.382Z,101355.63
2023-05-16T02:32:40.478Z,101351.94
2023-05-16T02:35:28.730Z,101348.34
2023-05-16T02:38:16.783Z,101358.09
2023-05-16T02:41:03.804Z,101344.75
2023-05-16T02:43:50.847Z,101351.88
2023-05-16T02:46:43.060Z,101346.47
2023-05-16T02:49:30.339Z,101326.47
2023-05-16T02:52:17.222Z,101335.03
2023-05-16T02:55:21.159Z,101343.66
2023-05-16T02:58:11.229Z,101335.75
2023-05-16T03:00:58.341Z,101335.75
2023-05-16T03:03:45.953Z,101264.00
2023-05-16T03:06:33.727Z,101342.72
2023-05-16T03:09:20.755Z,101308.09
2023-05-16T03:12:07.867Z,101298.72
2023-05-16T03:14:55.075Z,101331.59
2023-05-16T03:17:42.189Z,101321.16
2023-05-16T03:20:29.848Z,101333.97
2023-05-16T03:23:16.783Z,101333.88
2023-05-16T03:26:03.826Z,101317.91
2023-05-16T03:28:50.854Z,101316.66
2023-05-16T03:31:39.199Z,101300.97
2023-05-16T03:34:26.213Z,101318.28
2023-05-16T03:37:13.446Z,101314.59
2023-05-16T03:40:00.467Z,101319.75
2023-05-16T03:42:47.405Z,101303.84
2023-05-16T03:45:34.481Z,101297.44
2023-05-16T03:48:21.492Z,101302.59
2023-05-16T03:51:09.110Z,101289.06
2023-05-16T03:53:57.406Z,101259.66
2023-05-16T03:56:44.389Z,101277.88
2023-05-16T03:59:31.334Z,101276.78
2023-05-16T04:02:19.117Z,101267.63
2023-05-16T04:05:06.280Z,101272.72
2023-05-16T04:07:53.420Z,101255.72
2023-05-16T04:10:40.737Z,101270.53
2023-05-16T04:13:27.817Z,101258.75
2023-05-16T04:16:14.817Z,101253.34
2023-05-16T04:19:02.007Z,101254.88
2023-05-16T04:21:49.083Z,101267.00
2023-05-16T04:24:36.027Z,101248.25
2023-05-16T04:27:23.231Z,101241.94
2023-05-16T04:30:10.229Z,101236.50
2023-05-16T04:32:57.415Z,101241.69
2023-05-16T04:35:44.506Z,101246.88
2023-05-16T04:38:31.521Z,101238.84
2023-05-16T04:41:18.603Z,101229.91
2023-05-16T04:44:05.616Z,101224.66
2023-05-16T04:46:52.750Z,101231.44
2023-05-16T04:49:40.396Z,101226.91
2023-05-16T04:52:31.159Z,101229.41
2023-05-16T04:55:18.046Z,101226.66
2023-05-16T04:58:05.017Z,101223.91
2023-05-16T05:00:51.928Z,101220.25
2023-05-16T05:03:38.863Z,101224.53
2023-05-16T05:06:26.130Z,101218.09
2023-05-16T05:09:14.250Z,101209.00
2023-05-16T05:12:01.068Z,101207.88
2023-05-16T05:14:47.943Z,101211.25
2023-05-16T05:17:35.027Z,101198.59
2023-05-16T05:20:22.216Z,101177.66
2023-05-16T05:23:09.153Z,101197.31
2023-05-16T05:25:57.166Z,101188.69
2023-05-16T05:28:53.735Z,101196.81
2023-05-16T05:31:44.765Z,101200.97
2023-05-16T05:34:31.761Z,101194.63
2023-05-16T05:37:18.983Z,101203.06
2023-05-16T05:40:06.018Z,101164.78
2023-05-16T05:42:53.146Z,101196.34
2023-05-16T05:45:40.206Z,101194.97
2023-05-16T05:48:27.595Z,101171.09
2023-05-16T05:51:14.622Z,101180.06
2023-05-16T05:54:02.091Z,101179.53
2023-05-16T05:56:49.034Z,101180.91
2023-05-16T05:59:36.246Z,101175.09
2023-05-16T06:02:23.617Z,101167.97
2023-05-16T06:05:10.907Z,101170.88
2023-05-16T06:07:57.921Z,101160.66
2023-05-16T06:10:45.281Z,101164.53
2023-05-16T06:13:32.207Z,101149.16
2023-05-16T06:16:19.401Z,101153.97
2023-05-16T06:19:06.503Z,101161.25
2023-05-16T06:21:53.784Z,101091.53
2023-05-16T06:24:40.993Z,101147.81
2023-05-16T06:27:29.025Z,101159.50
2023-05-16T06:30:16.201Z,101156.94
2023-05-16T06:33:03.158Z,101149.19
2023-05-16T06:35:50.218Z,101149.66
2023-05-16T06:38:39.084Z,101140.09
2023-05-16T06:41:25.977Z,101148.41
2023-05-16T06:44:12.966Z,101138.91
2023-05-16T06:47:00.361Z,101099.44
2023-05-16T06:49:47.434Z,101134.09
2023-05-16T06:52:34.728Z,101121.91
2023-05-16T06:55:21.913Z,101113.56
2023-05-16T06:58:08.994Z,101121.56
2023-05-16T07:00:56.120Z,101115.69
2023-05-16T07:03:43.257Z,101103.38
2023-05-16T07:06:30.275Z,101075.75
2023-05-16T07:09:17.845Z,101101.53
2023-05-16T07:12:05.196Z,101106.78
2023-05-16T07:14:52.159Z,101092.09
2023-05-16T07:17:39.263Z,101097.88
2023-05-16T07:20:27.190Z,101088.13
2023-05-16T07:23:14.359Z,101108.28
2023-05-16T07:26:01.474Z,101106.56
2023-05-16T07:28:48.633Z,101101.28
2023-05-16T07:31:36.100Z,101087.94
2023-05-16T07:34:23.341Z,101079.19
2023-05-16T07:37:10.349Z,101075.59
2023-05-16T07:39:57.437Z,101066.50
2023-05-16T07:42:44.906Z,101072.94
2023-05-16T07:45:32.021Z,101066.84
2023-05-16T07:48:18.956Z,101053.06
2023-05-16T07:51:06.063Z,101077.69
2023-05-16T07:53:52.997Z,101063.59
2023-05-16T07:56:40.187Z,101065.44
2023-05-16T07:59:28.204Z,101054.69
2023-05-16T08:02:15.443Z,101056.44
2023-05-16T08:05:02.439Z,101046.53
2023-05-16T08:07:49.636Z,101034.03
2023-05-16T08:10:36.766Z,101049.47
2023-05-16T08:13:23.985Z,101038.81
2023-05-16T08:16:11.137Z,101038.81
2023-05-16T08:18:58.265Z,101014.66
2023-05-16T08:21:45.277Z,101026.56
2023-05-16T08:24:32.402Z,101021.41
2023-05-16T08:27:19.469Z,101010.97
2023-05-16T08:30:06.479Z,101017.28
2023-05-16T08:32:53.910Z,101021.09
2023-05-16T08:35:40.902Z,101014.91
2023-05-16T08:38:27.884Z,101014.16
2023-05-16T08:41:15.058Z,101008.72
2023-05-16T08:44:02.281Z,101004.22
2023-05-16T08:46:49.657Z,101003.31
2023-05-16T08:49:38.134Z,101002.53
2023-05-16T08:52:28.790Z,100995.66
2023-05-16T08:55:19.302Z,100984.88
2023-05-16T08:58:09.430Z,100989.50
2023-05-16T09:00:56.436Z,100993.25
2023-05-16T09:03:43.688Z,100989.00
2023-05-16T09:06:30.864Z,100989.31
2023-05-16T09:09:17.943Z,100978.25
2023-05-16T09:12:05.032Z,100982.53
2023-05-16T09:14:52.317Z,100939.97
2023-05-16T09:17:41.437Z,100975.63
2023-05-16T09:20:33.281Z,100974.97
2023-05-16T09:23:20.482Z,100984.13
2023-05-16T09:26:07.679Z,100985.25
2023-05-16T09:28:58.254Z,100973.88
2023-05-16T09:31:49.428Z,100983.03
2023-05-16T09:34:36.806Z,100976.19
2023-05-16T09:37:23.752Z,100980.06
2023-05-16T09:40:13.067Z,100977.63
2023-05-16T09:43:00.014Z,100969.06
2023-05-16T09:45:47.098Z,100955.25
2023-05-16T09:48:35.059Z,100953.88
2023-05-16T09:51:26.010Z,100949.56
2023-05-16T09:54:13.120Z,100941.59
2023-05-16T09:57:10.000Z,100911.81
2023-05-16T09:59:58.671Z,100940.84
2023-05-16T10:02:46.624Z,100933.25
2023-05-16T10:05:33.806Z,100925.66
2023-05-16T10:08:23.344Z,100898.25
2023-05-16T10:11:19.158Z,100902.47
2023-05-16T10:14:08.011Z,100907.16
2023-05-16T10:16:55.932Z,100891.28
2023-05-16T10:19:45.403Z,100882.06
2023-05-16T10:22:33.684Z,100883.88
2023-05-16T10:25:42.606Z,100886.72
2023-05-16T10:28:29.935Z,100894.28
2023-05-16T10:31:18.013Z,100880.06
2023-05-16T10:34:05.034Z,100883.50
2023-05-16T10:36:52.374Z,100889.97
2023-05-16T10:39:39.739Z,100894.41
2023-05-16T10:42:27.403Z,100891.44
2023-05-16T10:45:15.229Z,100895.59
2023-05-16T10:48:11.134Z,100888.75
2023-05-16T10:51:04.288Z,100891.06
2023-05-16T10:53:56.027Z,100895.94
2023-05-16T10:56:45.302Z,100896.38
2023-05-16T10:59:45.715Z,100881.56
2023-05-16T11:02:45.985Z,100889.16
2023-05-16T11:05:39.270Z,100882.28
2023-05-16T11:08:26.674Z,100867.06
2023-05-16T11:11:52.262Z,100883.19
2023-05-16T11:14:45.140Z,100874.47
2023-05-16T11:17:55.858Z,100872.06
2023-05-16T11:20:56.632Z,100869.38
2023-05-16T11:23:45.265Z,100856.81
2023-05-16T11:26:33.333Z,100836.34
2023-05-16T11:29:21.419Z,100852.28
2023-05-16T11:32:08.411Z,100845.72
2023-05-16T11:34:56.561Z,100842.84
2023-05-16T11:37:44.061Z,100842.16
2023-05-16T11:40:32.606Z,100847.44
2023-05-16T11:43:21.066Z,100842.03
2023-05-16T11:46:15.018Z,100823.97
2023-05-16T11:49:02.379Z,100846.59
2023-05-16T11:51:49.502Z,100837.78
2023-05-16T11:54:38.250Z,100825.97
2023-05-16T11:57:25.550Z,100831.53
2023-05-16T12:00:13.702Z,100830.81
2023-05-16T12:03:01.271Z,100827.84
2023-05-16T12:05:48.624Z,100830.41
2023-05-16T12:08:36.429Z,100816.47
2023-05-16T12:11:23.658Z,100818.72
2023-05-16T12:14:10.971Z,100794.00
2023-05-16T12:16:59.366Z,100804.91
2023-05-16T12:19:46.767Z,100809.75
2023-05-16T12:22:37.706Z,100809.44
2023-05-16T12:25:47.739Z,100805.78
2023-05-16T12:28:36.067Z,100796.78
2023-05-16T12:31:31.861Z,100778.88
2023-05-16T12:34:19.848Z,100785.53
2023-05-16T12:37:11.918Z,100779.88
2023-05-16T12:39:59.285Z,100774.78
2023-05-16T12:42:47.562Z,100768.94
2023-05-16T12:45:35.728Z,100733.69
2023-05-16T12:48:29.002Z,100763.41
2023-05-16T12:51:16.047Z,100785.03
2023-05-16T12:57:00.202Z,100768.84
2023-05-16T12:59:47.198Z,100764.69
2023-05-16T13:02:34.894Z,100738.22
2023-05-16T13:05:24.664Z,100745.88
2023-05-16T13:08:11.873Z,100742.78
2023-05-16T13:10:58.868Z,100728.41
2023-05-16T13:13:45.975Z,100723.16
2023-05-16T13:16:33.168Z,100727.44
2023-05-16T13:19:20.500Z,100724.72
2023-05-16T13:22:07.488Z,100723.72
2023-05-16T13:24:54.703Z,100721.03
2023-05-16T13:27:41.715Z,100710.22
2023-05-16T13:30:29.228Z,100699.41
2023-05-16T13:33:16.294Z,100718.19
2023-05-16T13:36:08.365Z,100703.66
2023-05-16T13:38:56.596Z,100693.72
2023-05-16T13:41:44.089Z,100690.72
2023-05-16T13:44:31.474Z,100693.13
2023-05-16T13:47:20.759Z,100631.56
2023-05-16T13:50:07.885Z,100691.41
2023-05-16T13:52:55.354Z,100684.72
2023-05-16T13:55:42.495Z,100690.75
2023-05-16T13:58:30.388Z,100670.78
2023-05-16T14:00:57.628Z,100682.78
2023-05-16T14:03:24.758Z,100698.25
2023-05-16T14:05:52.046Z,100692.84
2023-05-16T14:08:19.097Z,100682.03
2023-05-16T14:10:46.237Z,100673.22
2023-05-16T14:13:13.189Z,100669.94
2023-05-16T14:15:40.598Z,100674.91
2023-05-16T14:18:08.275Z,100656.72
2023-05-16T14:20:35.918Z,100662.13
2023-05-16T14:23:03.135Z,100672.19
2023-05-16T14:25:30.392Z,100669.78
2023-05-16T14:27:57.732Z,100678.63
2023-05-16T14:30:25.051Z,100673.22
2023-05-16T14:32:52.194Z,100662.25
2023-05-16T14:35:39.202Z,100672.50
2023-05-16T14:38:26.377Z,100685.03
2023-05-16T14:41:13.449Z,100712.91
2023-05-16T14:44:00.799Z,100729.81
2023-05-16T14:46:48.135Z,100728.84
2023-05-16T14:49:35.384Z,100716.47
2023-05-16T14:52:22.324Z,100717.75
2023-05-16T14:55:09.517Z,100724.00
2023-05-16T14:57:59.569Z,100740.09
2023-05-16T15:00:47.430Z,100742.03
2023-05-16T15:03:53.671Z,100738.47
2023-05-16T15:06:42.944Z,100689.16
2023-05-16T15:09:29.973Z,100758.34
2023-05-16T15:12:17.130Z,100745.06
2023-05-16T15:15:04.097Z,100753.66
2023-05-16T15:17:51.349Z,100750.25
2023-05-16T15:20:38.603Z,100760.88
2023-05-16T15:23:28.009Z,100707.47
2023-05-16T15:26:15.156Z,100741.22
2023-05-16T15:29:02.301Z,100740.81
2023-05-16T15:31:49.273Z,100735.72
2023-05-16T15:34:36.323Z,100735.16
2023-05-16T15:37:23.366Z,100704.59
2023-05-16T15:40:10.492Z,100706.94
2023-05-16T15:42:57.496Z,100693.88
2023-05-16T15:45:44.832Z,100659.44
2023-05-16T15:48:32.037Z,100689.75
2023-05-16T15:51:19.121Z,100689.13
2023-05-16T15:54:07.389Z,100683.38
2023-05-16T15:56:54.529Z,100679.63
2023-05-16T15:59:41.445Z,100669.59
2023-05-16T16:02:28.618Z,100653.09
2023-05-16T16:05:15.777Z,100648.09
2023-05-16T16:08:02.993Z,100633.22
2023-05-16T16:10:49.956Z,100633.47
2023-05-16T16:13:36.969Z,100631.75
2023-05-16T16:16:23.966Z,100636.38
2023-05-16T16:19:11.049Z,100594.22
2023-05-16T16:21:58.062Z,100642.31
2023-05-16T16:24:45.123Z,100625.09
2023-05-16T16:27:32.050Z,100632.19
2023-05-16T16:30:19.144Z,100632.19
2023-05-16T16:33:06.419Z,100629.72
2023-05-16T16:35:53.824Z,100625.34
2023-05-16T16:38:41.176Z,100616.56
2023-05-16T16:41:28.305Z,100606.16
2023-05-16T16:44:15.334Z,100614.72
2023-05-16T16:47:02.874Z,100606.06
2023-05-16T16:49:50.144Z,100601.44
2023-05-16T16:52:37.182Z,100593.25
2023-05-16T16:55:24.819Z,100593.13
2023-05-16T16:58:11.943Z,100593.00
2023-05-16T17:00:58.898Z,100580.06
2023-05-16T17:03:46.024Z,100585.31
2023-05-16T17:06:33.293Z,100587.75
2023-05-16T17:09:20.441Z,100578.84
2023-05-16T17:12:07.491Z,100562.25
2023-05-16T17:14:54.982Z,100563.34
2023-05-16T17:17:42.818Z,100543.47
2023-05-16T17:20:30.284Z,100570.19
2023-05-16T17:23:17.383Z,100572.75
2023-05-16T17:26:04.465Z,100574.56
2023-05-16T17:28:51.529Z,100567.50
2023-05-16T17:31:38.696Z,100564.09
2023-05-16T17:34:25.648Z,100564.44
2023-05-16T17:37:12.801Z,100520.53
2023-05-16T17:39:59.742Z,100561.13
2023-05-16T17:42:46.798Z,100547.22
2023-05-16T17:45:34.441Z,100547.47
2023-05-16T17:48:21.751Z,100536.50
2023-05-16T17:51:08.852Z,100469.38
2023-05-16T17:53:55.995Z,100535.13
2023-05-16T17:56:43.031Z,100537.00
2023-05-16T17:59:30.157Z,100533.44
2023-05-16T18:02:20.197Z,100532.81
2023-05-16T18:05:07.397Z,100529.53
2023-05-16T18:07:54.354Z,100519.38
2023-05-16T18:10:51.102Z,100527.53
2023-05-16T18:13:39.795Z,100496.31
2023-05-16T18:16:27.051Z,100516.59
2023-05-16T18:19:14.324Z,100495.69
2023-05-16T18:22:01.459Z,100532.19
2023-05-16T18:24:48.378Z,100523.75
2023-05-16T18:27:35.772Z,100531.91
2023-05-16T18:30:23.687Z,100501.16
2023-05-16T18:33:10.975Z,100528.84
2023-05-16T18:35:57.885Z,100512.16
2023-05-16T18:38:45.131Z,100509.81
2023-05-16T18:41:32.335Z,100514.56
2023-05-16T18:44:19.287Z,100509.53
2023-05-16T18:47:06.925Z,100508.16
2023-05-16T18:49:54.072Z,100497.53
2023-05-16T18:52:41.142Z,100500.19
2023-05-16T18:55:28.922Z,100497.13
2023-05-16T18:58:16.072Z,100499.28
2023-05-16T19:01:03.072Z,100472.66
2023-05-16T19:03:50.455Z,100504.28
2023-05-16T19:06:37.678Z,100495.59
2023-05-16T19:09:28.312Z,100491.34
2023-05-16T19:12:15.327Z,100476.44
2023-05-16T19:15:02.333Z,100480.22
2023-05-16T19:17:49.512Z,100468.00
2023-05-16T19:20:36.754Z,100473.72
2023-05-16T19:23:24.035Z,100465.91
2023-05-16T19:26:10.945Z,100464.44
2023-05-16T19:28:58.192Z,100454.31
2023-05-16T19:31:45.157Z,100448.31
2023-05-16T19:34:32.275Z,100456.22
2023-05-16T19:37:19.499Z,100431.47
2023-05-16T19:40:06.456Z,100427.28
2023-05-16T19:42:53.481Z,100433.91
2023-05-16T19:45:41.358Z,100417.69
2023-05-16T19:48:28.925Z,100420.47
2023-05-16T19:51:17.856Z,100434.16
2023-05-16T19:54:08.484Z,100436.59
2023-05-16T19:56:56.255Z,100429.75
2023-05-16T19:59:43.443Z,100439.38
2023-05-16T20:02:30.511Z,100421.00
2023-05-16T20:05:18.216Z,100422.69
2023-05-16T20:08:06.108Z,100410.75
2023-05-16T20:10:53.121Z,100420.34
2023-05-16T20:13:43.274Z,100410.84
2023-05-16T20:16:30.370Z,100402.06
2023-05-16T20:19:18.387Z,100400.38
2023-05-16T20:22:05.984Z,100388.06
2023-05-16T20:24:53.565Z,100395.38
2023-05-16T20:27:40.610Z,100386.69
2023-05-16T20:30:28.167Z,100378.03
2023-05-16T20:33:15.193Z,100382.41
2023-05-16T20:36:02.336Z,100375.59
2023-05-16T20:38:49.395Z,100377.41
2023-05-16T20:41:36.389Z,100379.25
2023-05-16T20:44:23.369Z,100365.97
2023-05-16T20:47:10.550Z,100359.75
2023-05-16T20:49:57.425Z,100359.75
2023-05-16T20:52:44.542Z,100352.81
2023-05-16T20:55:31.561Z,100351.84
2023-05-16T20:58:18.649Z,100339.44
2023-05-16T21:01:05.572Z,100346.59
2023-05-16T21:03:52.831Z,100334.22
2023-05-16T21:06:39.877Z,100341.44
2023-05-16T21:09:26.923Z,100335.47
2023-05-16T21:12:13.859Z,100322.19
2023-05-16T21:15:00.994Z,100321.38
2023-05-16T21:17:48.179Z,100319.75
2023-05-16T21:20:35.375Z,100267.69
2023-05-16T21:23:22.296Z,100255.97
2023-05-16T21:26:09.537Z,100309.28
2023-05-16T21:28:56.605Z,100301.50
2023-05-16T21:31:43.834Z,100309.41
2023-05-16T21:34:30.942Z,100299.69
2023-05-16T21:37:18.030Z,100298.69
2023-05-16T21:40:04.955Z,100296.03
2023-05-16T21:42:52.149Z,100290.69
2023-05-16T21:45:39.257Z,100282.66
2023-05-16T21:48:26.890Z,100282.66
2023-05-16T21:51:13.931Z,100288.13
2023-05-16T21:54:00.963Z,100279.34
2023-05-16T21:56:48.079Z,100284.69
2023-05-16T21:59:35.044Z,100272.28
2023-05-16T22:02:22.006Z,100267.19
2023-05-16T22:05:15.026Z,100251.38
2023-05-16T22:08:02.505Z,100255.72
2023-05-16T22:10:49.861Z,100253.91
2023-05-16T22:13:36.981Z,100247.72
2023-05-16T22:16:24.543Z,100253.06
2023-05-16T22:19:11.617Z,100246.00
2023-05-16T22:21:58.714Z,100242.47
2023-05-16T22:24:45.725Z,100238.00
2023-05-16T22:27:33.213Z,100243.34
2023-05-16T22:30:20.285Z,100231.28
2023-05-16T22:33:07.418Z,100238.09
2023-05-16T22:35:54.552Z,100227.34
2023-05-16T22:38:41.738Z,100238.84
2023-05-16T22:41:28.701Z,100239.69
2023-05-16T22:44:15.861Z,100210.25
2023-05-16T22:47:03.040Z,100178.91
2023-05-16T22:49:50.227Z,100221.53
2023-05-16T22:52:37.205Z,100227.41
2023-05-16T22:55:24.383Z,100231.06
2023-05-16T22:58:11.532Z,100210.28
2023-05-16T23:00:58.679Z,100229.56
2023-05-16T23:03:45.870Z,100233.31
2023-05-16T23:06:32.920Z,100225.53
2023-05-16T23:09:23.273Z,100237.31
2023-05-16T23:12:10.307Z,100227.09
2023-05-16T23:14:57.582Z,100237.66
2023-05-16T23:17:44.925Z,100238.72
2023-05-16T23:20:32.137Z,100231.91
2023-05-16T23:23:19.358Z,100231.06
2023-05-16T23:26:06.549Z,100241.00
2023-05-16T23:28:53.704Z,100249.13
2023-05-16T23:31:40.735Z,100238.88
2023-05-16T23:34:27.894Z,100239.97
2023-05-16T23:37:14.844Z,100232.53
2023-05-16T23:40:02.346Z,100224.84
2023-05-16T23:42:49.440Z,100242.78
2023-05-16T23:45:36.767Z,100213.44
2023-05-16T23:48:24.698Z,100228.19
2023-05-16T23:51:12.131Z,100231.91
2023-05-16T23:53:59.377Z,100229.34
2023-05-16T23:56:46.517Z,100230.44
2023-05-16T23:59:33.870Z,100235.03
